Accueil
METAR-TAF:

METAR-TAF

Aéroports :

Wanaham

Lifou, Nouvelle-Calédonie

latitude: 20-46S, longitude: 167-14E, altitude: 28 m

METAR: absent

Heure: 17:11 (06:11 UTC)

Prévision

Le bulletin a été fait il y a 1 heure et 11 minutes, à 05:00 UTC
Prévision valable du 27 à 06 UTC au 28 à 06 UTC
Vent 8 kt de est/sud-est
Visibilité 10 km ou plus
Nuages épars à une hauteur de 3000 ft
Nuages fragmentés à une hauteur de 6000 ft
Probabilité 40% :
Temporairement
du 28 à 00 UTC au 28 à 06 UTC
Nuages épars à une hauteur de 3000 ft, Cumulus congestus.
averses de pluie

TAF: NWWL 270500Z 2706/2806 11008KT 9999 SCT030 BKN060 PROB40 TEMPO 2800/2806 SHRA SCT030TCU

Observations et prévisions météorologiques de plus de 4000 aéroports (messages METAR et TAF).

Les stations disponibles sont représentées par des disques jaunes et rouges sur la carte.

Passer la souris dessus pour voir le nom de la station.

Cliquer dessus pour voir les observations et prévisions météorologiques.

Pour changer de carte: cliquez sur les boutons verts avec une croix noire pour zoomer, sur le bouton vert avec un tiret pour effectuer un zoom arrière, ou sur les flèches vertes pour les cartes adjacentes.


METAR-TAF: